sensor_id;sensor_type;location;lat;lon;timestamp;pressure;altitude;pressure_sealevel;temperature;humidity
35900;BME280;21998;44.112;12.318;2022-08-19T07:13:55;100351.63;;;23.28;100.00
35900;BME280;21998;44.112;12.318;2022-08-19T07:22:39;100355.97;;;23.70;100.00
35900;BME280;21998;44.112;12.318;2022-08-19T07:32:54;100390.13;;;23.99;100.00
35900;BME280;21998;44.112;12.318;2022-08-19T07:35:19;100402.38;;;24.08;100.00
35900;BME280;21998;44.112;12.318;2022-08-19T07:37:46;100409.13;;;24.25;100.00
35900;BME280;21998;44.112;12.318;2022-08-19T07:44:40;100416.66;;;24.43;100.00
35900;BME280;21998;44.112;12.318;2022-08-19T07:47:06;100419.78;;;24.59;100.00
35900;BME280;21998;44.112;12.318;2022-08-19T07:49:33;100415.41;;;24.57;100.00
35900;BME280;21998;44.112;12.318;2022-08-19T07:55:27;100425.31;;;24.88;100.00
35900;BME280;21998;44.112;12.318;2022-08-19T07:57:52;100424.88;;;25.02;100.00
35900;BME280;21998;44.112;12.318;2022-08-19T08:00:19;100417.28;;;25.16;100.00
35900;BME280;21998;44.112;12.318;2022-08-19T08:02:45;100418.59;;;25.33;100.00
35900;BME280;21998;44.112;12.318;2022-08-19T08:05:11;100420.78;;;25.50;100.00
35900;BME280;21998;44.112;12.318;2022-08-19T08:07:55;100416.19;;;25.53;100.00
35900;BME280;21998;44.112;12.318;2022-08-19T08:10:40;100416.47;;;25.72;100.00
35900;BME280;21998;44.112;12.318;2022-08-19T08:13:05;100419.16;;;25.99;100.00
35900;BME280;21998;44.112;12.318;2022-08-19T08:15:31;100413.28;;;26.15;100.00
35900;BME280;21998;44.112;12.318;2022-08-19T08:17:57;100431.53;;;26.32;100.00
35900;BME280;21998;44.112;12.318;2022-08-19T08:20:23;100453.97;;;26.32;100.00
35900;BME280;21998;44.112;12.318;2022-08-19T08:22:49;100466.91;;;26.46;100.00
35900;BME280;21998;44.112;12.318;2022-08-19T08:25:35;100506.31;;;24.71;100.00
35900;BME280;21998;44.112;12.318;2022-08-19T08:28:02;100517.97;;;23.55;100.00
35900;BME280;21998;44.112;12.318;2022-08-19T08:30:29;100539.19;;;22.73;100.00
35900;BME280;21998;44.112;12.318;2022-08-19T08:32:57;100562.06;;;22.37;100.00
35900;BME280;21998;44.112;12.318;2022-08-19T08:35:23;100553.97;;;22.43;100.00
35900;BME280;21998;44.112;12.318;2022-08-19T08:37:51;100552.66;;;22.13;100.00
35900;BME280;21998;44.112;12.318;2022-08-19T08:52:29;100581.09;;;21.50;100.00
35900;BME280;21998;44.112;12.318;2022-08-19T08:55:00;100596.13;;;21.60;100.00
35900;BME280;21998;44.112;12.318;2022-08-19T09:00:08;100572.88;;;22.31;100.00
35900;BME280;21998;44.112;12.318;2022-08-19T09:02:36;100594.91;;;22.47;100.00
35900;BME280;21998;44.112;12.318;2022-08-19T09:05:02;100586.41;;;22.20;100.00
35900;BME280;21998;44.112;12.318;2022-08-19T09:10:44;100592.34;;;22.40;100.00
35900;BME280;21998;44.112;12.318;2022-08-19T09:15:55;100601.38;;;22.30;100.00
35900;BME280;21998;44.112;12.318;2022-08-19T09:18:22;100611.97;;;22.39;100.00
35900;BME280;21998;44.112;12.318;2022-08-19T09:20:48;100612.09;;;22.29;100.00
35900;BME280;21998;44.112;12.318;2022-08-19T09:23:14;60334.84;;;-147.32;100.00
35900;BME280;21998;44.112;12.318;2022-08-19T09:25:40;100598.91;;;22.18;100.00
35900;BME280;21998;44.112;12.318;2022-08-19T09:28:06;100595.78;;;22.47;100.00
35900;BME280;21998;44.112;12.318;2022-08-19T09:30:38;100591.38;;;22.98;100.00
35900;BME280;21998;44.112;12.318;2022-08-19T09:33:06;100589.00;;;23.29;100.00
35900;BME280;21998;44.112;12.318;2022-08-19T09:35:32;74247.69;;;-147.31;100.00
35900;BME280;21998;44.112;12.318;2022-08-19T09:37:59;60334.84;;;-147.32;100.00
35900;BME280;21998;44.112;12.318;2022-08-19T09:40:29;60334.84;;;-147.32;100.00
35900;BME280;21998;44.112;12.318;2022-08-19T09:42:55;60334.84;;;-147.32;100.00
35900;BME280;21998;44.112;12.318;2022-08-19T09:45:22;60334.84;;;-147.32;100.00
35900;BME280;21998;44.112;12.318;2022-08-19T09:47:52;60334.84;;;-147.32;100.00
35900;BME280;21998;44.112;12.318;2022-08-19T09:50:18;60334.84;;;-147.32;100.00
35900;BME280;21998;44.112;12.318;2022-08-19T09:52:45;60334.84;;;-147.32;100.00
35900;BME280;21998;44.112;12.318;2022-08-19T09:55:11;60334.84;;;-147.32;100.00
35900;BME280;21998;44.112;12.318;2022-08-19T09:57:37;60334.84;;;-147.32;100.00
35900;BME280;21998;44.112;12.318;2022-08-19T10:00:06;60334.84;;;-147.32;100.00
35900;BME280;21998;44.112;12.318;2022-08-19T10:02:33;60334.84;;;-147.32;100.00
35900;BME280;21998;44.112;12.318;2022-08-19T10:04:59;60334.84;;;-147.32;100.00
35900;BME280;21998;44.112;12.318;2022-08-19T10:07:43;60334.84;;;-147.32;100.00
35900;BME280;21998;44.112;12.318;2022-08-19T10:10:09;60334.84;;;-147.32;100.00
35900;BME280;21998;44.112;12.318;2022-08-19T10:12:36;60334.84;;;-147.32;100.00
35900;BME280;21998;44.112;12.318;2022-08-19T10:15:03;60334.84;;;-147.32;100.00
35900;BME280;21998;44.112;12.318;2022-08-19T10:17:30;60334.84;;;-147.32;100.00
35900;BME280;21998;44.112;12.318;2022-08-19T10:19:56;60334.84;;;-147.32;100.00
35900;BME280;21998;44.112;12.318;2022-08-19T10:22:22;60334.84;;;-147.32;100.00
35900;BME280;21998;44.112;12.318;2022-08-19T10:24:48;60334.84;;;-147.32;100.00
35900;BME280;21998;44.112;12.318;2022-08-19T10:27:15;60334.84;;;-147.32;100.00
35900;BME280;21998;44.112;12.318;2022-08-19T10:29:41;60334.84;;;-147.32;100.00
35900;BME280;21998;44.112;12.318;2022-08-19T10:32:08;60334.84;;;-147.32;100.00
35900;BME280;21998;44.112;12.318;2022-08-19T10:34:35;60334.84;;;-147.32;100.00
35900;BME280;21998;44.112;12.318;2022-08-19T10:37:03;60334.84;;;-147.32;100.00
35900;BME280;21998;44.112;12.318;2022-08-19T10:39:32;60334.84;;;-147.32;100.00
35900;BME280;21998;44.112;12.318;2022-08-19T10:41:59;60334.84;;;-147.32;100.00
35900;BME280;21998;44.112;12.318;2022-08-19T10:44:29;60334.84;;;-147.32;100.00
35900;BME280;21998;44.112;12.318;2022-08-19T10:46:55;60334.84;;;-147.32;100.00
35900;BME280;21998;44.112;12.318;2022-08-19T10:49:21;60334.84;;;-147.32;100.00
35900;BME280;21998;44.112;12.318;2022-08-19T10:51:48;60334.84;;;-147.32;100.00
35900;BME280;21998;44.112;12.318;2022-08-19T10:54:32;60334.84;;;-147.32;100.00
35900;BME280;21998;44.112;12.318;2022-08-19T10:57:17;60334.84;;;-147.32;100.00
35900;BME280;21998;44.112;12.318;2022-08-19T10:59:42;60334.84;;;-147.32;100.00
35900;BME280;21998;44.112;12.318;2022-08-19T11:02:10;60334.84;;;-147.32;100.00
35900;BME280;21998;44.112;12.318;2022-08-19T11:04:38;60334.84;;;-147.32;100.00
35900;BME280;21998;44.112;12.318;2022-08-19T11:07:05;60334.84;;;-147.32;100.00
35900;BME280;21998;44.112;12.318;2022-08-19T11:09:31;60334.84;;;-147.32;100.00
35900;BME280;21998;44.112;12.318;2022-08-19T11:12:02;60334.84;;;-147.32;100.00
35900;BME280;21998;44.112;12.318;2022-08-19T11:14:28;60334.84;;;-147.32;100.00
35900;BME280;21998;44.112;12.318;2022-08-19T11:16:56;60334.84;;;-147.32;100.00
35900;BME280;21998;44.112;12.318;2022-08-19T11:19:22;60334.84;;;-147.32;100.00
35900;BME280;21998;44.112;12.318;2022-08-19T11:21:50;60334.84;;;-147.32;100.00
35900;BME280;21998;44.112;12.318;2022-08-19T11:24:22;60334.84;;;-147.32;100.00
35900;BME280;21998;44.112;12.318;2022-08-19T11:26:51;60334.84;;;-147.32;100.00
35900;BME280;21998;44.112;12.318;2022-08-19T11:29:20;60334.84;;;-147.32;100.00
35900;BME280;21998;44.112;12.318;2022-08-19T11:31:48;60334.84;;;-147.32;100.00
35900;BME280;21998;44.112;12.318;2022-08-19T11:34:20;60334.84;;;-147.32;100.00
35900;BME280;21998;44.112;12.318;2022-08-19T11:36:47;60334.84;;;-147.32;100.00
35900;BME280;21998;44.112;12.318;2022-08-19T11:39:16;60334.84;;;-147.32;100.00
35900;BME280;21998;44.112;12.318;2022-08-19T11:41:42;60334.84;;;-147.32;100.00
35900;BME280;21998;44.112;12.318;2022-08-19T11:44:08;60334.84;;;-147.32;100.00
35900;BME280;21998;44.112;12.318;2022-08-19T11:46:35;60334.84;;;-147.32;100.00
35900;BME280;21998;44.112;12.318;2022-08-19T11:49:04;60334.84;;;-147.32;100.00
35900;BME280;21998;44.112;12.318;2022-08-19T11:51:30;60334.84;;;-147.32;100.00
35900;BME280;21998;44.112;12.318;2022-08-19T11:53:59;60334.84;;;-147.32;100.00
35900;BME280;21998;44.112;12.318;2022-08-19T11:57:24;60334.84;;;-147.32;100.00
35900;BME280;21998;44.112;12.318;2022-08-19T12:00:49;60334.84;;;-147.32;100.00
35900;BME280;21998;44.112;12.318;2022-08-19T12:04:14;60334.84;;;-147.32;100.00
35900;BME280;21998;44.112;12.318;2022-08-19T12:07:39;60334.84;;;-147.32;100.00
35900;BME280;21998;44.112;12.318;2022-08-19T12:11:05;60334.84;;;-147.32;100.00
35900;BME280;21998;44.112;12.318;2022-08-19T12:14:32;60334.84;;;-147.32;100.00
35900;BME280;21998;44.112;12.318;2022-08-19T12:17:56;60334.84;;;-147.32;100.00
35900;BME280;21998;44.112;12.318;2022-08-19T12:21:23;60334.84;;;-147.32;100.00
35900;BME280;21998;44.112;12.318;2022-08-19T12:24:52;60334.84;;;-147.32;100.00
35900;BME280;21998;44.112;12.318;2022-08-19T12:28:19;60334.84;;;-147.32;100.00
35900;BME280;21998;44.112;12.318;2022-08-19T12:31:44;60334.84;;;-147.32;100.00
35900;BME280;21998;44.112;12.318;2022-08-19T12:35:10;60334.84;;;-147.32;100.00
35900;BME280;21998;44.112;12.318;2022-08-19T12:38:35;60334.84;;;-147.32;100.00
35900;BME280;21998;44.112;12.318;2022-08-19T12:42:00;60334.84;;;-147.32;100.00
35900;BME280;21998;44.112;12.318;2022-08-19T12:45:25;60334.84;;;-147.32;100.00
35900;BME280;21998;44.112;12.318;2022-08-19T12:48:49;60334.84;;;-147.32;100.00
35900;BME280;21998;44.112;12.318;2022-08-19T12:52:16;60334.84;;;-147.32;100.00
35900;BME280;21998;44.112;12.318;2022-08-19T12:55:45;60334.84;;;-147.32;100.00
35900;BME280;21998;44.112;12.318;2022-08-19T12:59:10;60334.84;;;-147.32;100.00
35900;BME280;21998;44.112;12.318;2022-08-19T13:02:35;60334.84;;;-147.32;100.00
35900;BME280;21998;44.112;12.318;2022-08-19T13:06:00;60334.84;;;-147.32;100.00
35900;BME280;21998;44.112;12.318;2022-08-19T13:09:25;60334.84;;;-147.32;100.00
35900;BME280;21998;44.112;12.318;2022-08-19T13:12:51;60334.84;;;-147.32;100.00
35900;BME280;21998;44.112;12.318;2022-08-19T13:16:16;60334.84;;;-147.32;100.00
35900;BME280;21998;44.112;12.318;2022-08-19T13:19:43;60334.84;;;-147.32;100.00
35900;BME280;21998;44.112;12.318;2022-08-19T13:23:08;60334.84;;;-147.32;100.00
35900;BME280;21998;44.112;12.318;2022-08-19T13:26:33;60334.84;;;-147.32;100.00
35900;BME280;21998;44.112;12.318;2022-08-19T13:29:57;60334.84;;;-147.32;100.00
35900;BME280;21998;44.112;12.318;2022-08-19T13:33:40;60334.84;;;-147.32;100.00
35900;BME280;21998;44.112;12.318;2022-08-19T13:37:05;60334.84;;;-147.32;100.00
35900;BME280;21998;44.112;12.318;2022-08-19T13:40:31;60334.84;;;-147.32;100.00
35900;BME280;21998;44.112;12.318;2022-08-19T13:43:58;60334.84;;;-147.32;100.00
35900;BME280;21998;44.112;12.318;2022-08-19T13:47:22;60334.84;;;-147.32;100.00
35900;BME280;21998;44.112;12.318;2022-08-19T13:50:47;60334.84;;;-147.32;100.00
35900;BME280;21998;44.112;12.318;2022-08-19T13:54:12;60334.84;;;-147.32;100.00
35900;BME280;21998;44.112;12.318;2022-08-19T13:57:41;60334.84;;;-147.32;100.00
35900;BME280;21998;44.112;12.318;2022-08-19T14:01:11;60334.84;;;-147.32;100.00
35900;BME280;21998;44.112;12.318;2022-08-19T14:04:36;60334.84;;;-147.32;100.00
35900;BME280;21998;44.112;12.318;2022-08-19T14:08:01;60334.84;;;-147.32;100.00
35900;BME280;21998;44.112;12.318;2022-08-19T14:11:26;60334.84;;;-147.32;100.00
35900;BME280;21998;44.112;12.318;2022-08-19T14:14:51;60334.84;;;-147.32;100.00
35900;BME280;21998;44.112;12.318;2022-08-19T14:18:16;60334.84;;;-147.32;100.00
35900;BME280;21998;44.112;12.318;2022-08-19T14:21:42;60334.84;;;-147.32;100.00
35900;BME280;21998;44.112;12.318;2022-08-19T14:25:09;60334.84;;;-147.32;100.00
35900;BME280;21998;44.112;12.318;2022-08-19T14:28:35;60334.84;;;-147.32;100.00
35900;BME280;21998;44.112;12.318;2022-08-19T14:31:59;60334.84;;;-147.32;100.00
35900;BME280;21998;44.112;12.318;2022-08-19T14:35:25;60334.84;;;-147.32;100.00
35900;BME280;21998;44.112;12.318;2022-08-19T14:38:51;60334.84;;;-147.32;100.00
35900;BME280;21998;44.112;12.318;2022-08-19T14:42:19;60334.84;;;-147.32;100.00
35900;BME280;21998;44.112;12.318;2022-08-19T14:45:44;60334.84;;;-147.32;100.00
35900;BME280;21998;44.112;12.318;2022-08-19T14:49:08;60334.84;;;-147.32;100.00
35900;BME280;21998;44.112;12.318;2022-08-19T14:52:32;60334.84;;;-147.32;100.00
35900;BME280;21998;44.112;12.318;2022-08-19T14:55:57;60334.84;;;-147.32;100.00
35900;BME280;21998;44.112;12.318;2022-08-19T14:59:21;60334.84;;;-147.32;100.00
35900;BME280;21998;44.112;12.318;2022-08-19T15:02:46;60334.84;;;-147.32;100.00
35900;BME280;21998;44.112;12.318;2022-08-19T15:06:10;60334.84;;;-147.32;100.00
35900;BME280;21998;44.112;12.318;2022-08-19T15:09:36;60334.84;;;-147.32;100.00
35900;BME280;21998;44.112;12.318;2022-08-19T15:13:00;60334.84;;;-147.32;100.00
35900;BME280;21998;44.112;12.318;2022-08-19T15:16:26;60334.84;;;-147.32;100.00
35900;BME280;21998;44.112;12.318;2022-08-19T15:19:52;60334.84;;;-147.32;100.00
35900;BME280;21998;44.112;12.318;2022-08-19T15:23:17;60334.84;;;-147.32;100.00
35900;BME280;21998;44.112;12.318;2022-08-19T15:26:42;60334.84;;;-147.32;100.00
35900;BME280;21998;44.112;12.318;2022-08-19T15:30:07;60334.84;;;-147.32;100.00
35900;BME280;21998;44.112;12.318;2022-08-19T15:33:34;60334.84;;;-147.32;100.00
35900;BME280;21998;44.112;12.318;2022-08-19T15:37:02;60334.84;;;-147.32;100.00
35900;BME280;21998;44.112;12.318;2022-08-19T15:40:29;60334.84;;;-147.32;100.00
35900;BME280;21998;44.112;12.318;2022-08-19T15:43:58;60334.84;;;-147.32;100.00
35900;BME280;21998;44.112;12.318;2022-08-19T15:47:25;60334.84;;;-147.32;100.00
35900;BME280;21998;44.112;12.318;2022-08-19T15:50:51;60334.84;;;-147.32;100.00
35900;BME280;21998;44.112;12.318;2022-08-19T15:54:17;60334.84;;;-147.32;100.00
35900;BME280;21998;44.112;12.318;2022-08-19T15:57:44;60334.84;;;-147.32;100.00
35900;BME280;21998;44.112;12.318;2022-08-19T16:01:27;60334.84;;;-147.32;100.00
35900;BME280;21998;44.112;12.318;2022-08-19T16:04:52;60334.84;;;-147.32;100.00
35900;BME280;21998;44.112;12.318;2022-08-19T16:08:35;60334.84;;;-147.32;100.00
35900;BME280;21998;44.112;12.318;2022-08-19T16:12:02;60334.84;;;-147.32;100.00
35900;BME280;21998;44.112;12.318;2022-08-19T16:15:29;60334.84;;;-147.32;100.00
35900;BME280;21998;44.112;12.318;2022-08-19T16:18:55;60334.84;;;-147.32;100.00
35900;BME280;21998;44.112;12.318;2022-08-19T16:22:20;60334.84;;;-147.32;100.00
35900;BME280;21998;44.112;12.318;2022-08-19T16:25:51;60334.84;;;-147.32;100.00
35900;BME280;21998;44.112;12.318;2022-08-19T16:29:16;60334.84;;;-147.32;100.00
35900;BME280;21998;44.112;12.318;2022-08-19T16:32:42;60334.84;;;-147.32;100.00
35900;BME280;21998;44.112;12.318;2022-08-19T16:36:07;60334.84;;;-147.32;100.00
35900;BME280;21998;44.112;12.318;2022-08-19T16:39:32;60334.84;;;-147.32;100.00
35900;BME280;21998;44.112;12.318;2022-08-19T16:42:57;60334.84;;;-147.32;100.00
35900;BME280;21998;44.112;12.318;2022-08-19T16:46:22;60334.84;;;-147.32;100.00
35900;BME280;21998;44.112;12.318;2022-08-19T16:49:47;60334.84;;;-147.32;100.00
35900;BME280;21998;44.112;12.318;2022-08-19T16:53:13;60334.84;;;-147.32;100.00
35900;BME280;21998;44.112;12.318;2022-08-19T16:56:37;60334.84;;;-147.32;100.00
35900;BME280;21998;44.112;12.318;2022-08-19T17:00:03;60334.84;;;-147.32;100.00
35900;BME280;21998;44.112;12.318;2022-08-19T17:03:33;60334.84;;;-147.32;100.00
35900;BME280;21998;44.112;12.318;2022-08-19T17:06:58;60334.84;;;-147.32;100.00
35900;BME280;21998;44.112;12.318;2022-08-19T17:10:22;60334.84;;;-147.32;100.00
35900;BME280;21998;44.112;12.318;2022-08-19T17:13:47;60334.84;;;-147.32;100.00
35900;BME280;21998;44.112;12.318;2022-08-19T17:17:14;60334.84;;;-147.32;100.00
35900;BME280;21998;44.112;12.318;2022-08-19T17:20:40;60334.84;;;-147.32;100.00
35900;BME280;21998;44.112;12.318;2022-08-19T17:24:05;60334.84;;;-147.32;100.00
35900;BME280;21998;44.112;12.318;2022-08-19T17:27:31;60334.84;;;-147.32;100.00
35900;BME280;21998;44.112;12.318;2022-08-19T17:30:56;60334.84;;;-147.32;100.00
35900;BME280;21998;44.112;12.318;2022-08-19T17:34:20;60334.84;;;-147.32;100.00
35900;BME280;21998;44.112;12.318;2022-08-19T17:37:46;60334.84;;;-147.32;100.00
35900;BME280;21998;44.112;12.318;2022-08-19T17:41:11;60334.84;;;-147.32;100.00
35900;BME280;21998;44.112;12.318;2022-08-19T17:44:35;60334.84;;;-147.32;100.00
35900;BME280;21998;44.112;12.318;2022-08-19T17:47:59;60334.84;;;-147.32;100.00
35900;BME280;21998;44.112;12.318;2022-08-19T17:54:56;60334.84;;;-147.32;100.00
35900;BME280;21998;44.112;12.318;2022-08-19T17:58:20;60334.84;;;-147.32;100.00
35900;BME280;21998;44.112;12.318;2022-08-19T18:01:45;60334.84;;;-147.32;100.00
35900;BME280;21998;44.112;12.318;2022-08-19T18:05:10;60334.84;;;-147.32;100.00
35900;BME280;21998;44.112;12.318;2022-08-19T18:08:34;60334.84;;;-147.32;100.00
35900;BME280;21998;44.112;12.318;2022-08-19T18:12:03;60334.84;;;-147.32;100.00
35900;BME280;21998;44.112;12.318;2022-08-19T18:15:32;60334.84;;;-147.32;100.00
35900;BME280;21998;44.112;12.318;2022-08-19T18:18:56;60334.84;;;-147.32;100.00
35900;BME280;21998;44.112;12.318;2022-08-19T18:25:45;60334.84;;;-147.32;100.00
35900;BME280;21998;44.112;12.318;2022-08-19T18:29:10;60334.84;;;-147.32;100.00
35900;BME280;21998;44.112;12.318;2022-08-19T18:32:37;60334.84;;;-147.32;100.00
35900;BME280;21998;44.112;12.318;2022-08-19T18:36:07;60334.84;;;-147.32;100.00
35900;BME280;21998;44.112;12.318;2022-08-19T18:39:31;60334.84;;;-147.32;100.00
35900;BME280;21998;44.112;12.318;2022-08-19T18:43:15;60334.84;;;-147.32;100.00
35900;BME280;21998;44.112;12.318;2022-08-19T18:46:43;60334.84;;;-147.32;100.00
35900;BME280;21998;44.112;12.318;2022-08-19T18:50:32;60334.84;;;-147.32;100.00
35900;BME280;21998;44.112;12.318;2022-08-19T18:53:56;60334.84;;;-147.32;100.00
35900;BME280;21998;44.112;12.318;2022-08-19T18:57:23;60334.84;;;-147.32;100.00
35900;BME280;21998;44.112;12.318;2022-08-19T18:59:52;60334.84;;;-147.32;100.00
35900;BME280;21998;44.112;12.318;2022-08-19T19:02:18;60334.84;;;-147.32;100.00
35900;BME280;21998;44.112;12.318;2022-08-19T19:04:45;60334.84;;;-147.32;100.00
35900;BME280;21998;44.112;12.318;2022-08-19T19:07:12;60334.84;;;-147.32;100.00
35900;BME280;21998;44.112;12.318;2022-08-19T19:09:44;60334.84;;;-147.32;100.00
35900;BME280;21998;44.112;12.318;2022-08-19T19:12:13;60334.84;;;-147.32;100.00
35900;BME280;21998;44.112;12.318;2022-08-19T19:14:43;60334.84;;;-147.32;100.00
35900;BME280;21998;44.112;12.318;2022-08-19T19:17:11;60334.84;;;-147.32;100.00
35900;BME280;21998;44.112;12.318;2022-08-19T19:19:39;60334.84;;;-147.32;100.00
35900;BME280;21998;44.112;12.318;2022-08-19T19:22:13;60334.84;;;-147.32;100.00
35900;BME280;21998;44.112;12.318;2022-08-19T19:24:40;60334.84;;;-147.32;100.00
35900;BME280;21998;44.112;12.318;2022-08-19T19:27:11;60334.84;;;-147.32;100.00
35900;BME280;21998;44.112;12.318;2022-08-19T19:29:38;60334.84;;;-147.32;100.00
35900;BME280;21998;44.112;12.318;2022-08-19T19:32:10;60334.84;;;-147.32;100.00
35900;BME280;21998;44.112;12.318;2022-08-19T19:34:41;60334.84;;;-147.32;100.00
35900;BME280;21998;44.112;12.318;2022-08-19T19:37:08;60334.84;;;-147.32;100.00
35900;BME280;21998;44.112;12.318;2022-08-19T19:39:34;60334.84;;;-147.32;100.00
35900;BME280;21998;44.112;12.318;2022-08-19T19:42:04;60334.84;;;-147.32;100.00
35900;BME280;21998;44.112;12.318;2022-08-19T19:44:30;60334.84;;;-147.32;100.00
35900;BME280;21998;44.112;12.318;2022-08-19T19:47:42;60334.84;;;-147.32;100.00
35900;BME280;21998;44.112;12.318;2022-08-19T19:50:12;60334.84;;;-147.32;100.00
35900;BME280;21998;44.112;12.318;2022-08-19T19:52:43;60334.84;;;-147.32;100.00
35900;BME280;21998;44.112;12.318;2022-08-19T19:55:10;60334.84;;;-147.32;100.00
35900;BME280;21998;44.112;12.318;2022-08-19T19:57:44;60334.84;;;-147.32;100.00
35900;BME280;21998;44.112;12.318;2022-08-19T20:00:11;60334.84;;;-147.32;100.00
35900;BME280;21998;44.112;12.318;2022-08-19T20:02:38;60334.84;;;-147.32;100.00
35900;BME280;21998;44.112;12.318;2022-08-19T20:05:04;60334.84;;;-147.32;100.00
35900;BME280;21998;44.112;12.318;2022-08-19T20:07:31;60334.84;;;-147.32;100.00
35900;BME280;21998;44.112;12.318;2022-08-19T20:10:15;60334.84;;;-147.32;100.00
35900;BME280;21998;44.112;12.318;2022-08-19T20:12:41;60334.84;;;-147.32;100.00
35900;BME280;21998;44.112;12.318;2022-08-19T20:15:07;60334.84;;;-147.32;100.00
35900;BME280;21998;44.112;12.318;2022-08-19T20:17:34;60334.84;;;-147.32;100.00
35900;BME280;21998;44.112;12.318;2022-08-19T20:20:09;60334.84;;;-147.32;100.00
35900;BME280;21998;44.112;12.318;2022-08-19T20:22:40;60334.84;;;-147.32;100.00
35900;BME280;21998;44.112;12.318;2022-08-19T20:25:09;60334.84;;;-147.32;100.00
35900;BME280;21998;44.112;12.318;2022-08-19T20:27:37;60334.84;;;-147.32;100.00
35900;BME280;21998;44.112;12.318;2022-08-19T20:30:05;60334.84;;;-147.32;100.00
35900;BME280;21998;44.112;12.318;2022-08-19T20:32:31;60334.84;;;-147.32;100.00
35900;BME280;21998;44.112;12.318;2022-08-19T20:34:58;60334.84;;;-147.32;100.00
35900;BME280;21998;44.112;12.318;2022-08-19T20:37:24;60334.84;;;-147.32;100.00
